sensor_id;sensor_type;location;lat;lon;timestamp;P1;durP1;ratioP1;P2;durP2;ratioP2
28343;SDS011;15597;50.914;6.638;2023-06-14T00:01:18;8.40;;;4.63;;
28343;SDS011;15597;50.914;6.638;2023-06-14T00:03:45;8.85;;;4.90;;
28343;SDS011;15597;50.914;6.638;2023-06-14T00:06:12;7.25;;;4.68;;
28343;SDS011;15597;50.914;6.638;2023-06-14T00:08:38;8.25;;;4.68;;
28343;SDS011;15597;50.914;6.638;2023-06-14T00:11:05;8.85;;;4.60;;
28343;SDS011;15597;50.914;6.638;2023-06-14T00:13:31;7.38;;;5.13;;
28343;SDS011;15597;50.914;6.638;2023-06-14T00:15:56;7.03;;;4.72;;
28343;SDS011;15597;50.914;6.638;2023-06-14T00:18:22;7.80;;;5.05;;
28343;SDS011;15597;50.914;6.638;2023-06-14T00:20:49;8.60;;;4.63;;
28343;SDS011;15597;50.914;6.638;2023-06-14T00:23:16;6.68;;;4.40;;
28343;SDS011;15597;50.914;6.638;2023-06-14T00:25:41;9.52;;;5.28;;
28343;SDS011;15597;50.914;6.638;2023-06-14T00:28:07;8.18;;;4.78;;
28343;SDS011;15597;50.914;6.638;2023-06-14T00:30:34;7.78;;;4.80;;
28343;SDS011;15597;50.914;6.638;2023-06-14T00:33:01;6.45;;;4.38;;
28343;SDS011;15597;50.914;6.638;2023-06-14T00:35:27;7.38;;;5.10;;
28343;SDS011;15597;50.914;6.638;2023-06-14T00:37:52;8.15;;;5.00;;
28343;SDS011;15597;50.914;6.638;2023-06-14T00:40:20;9.68;;;4.63;;
28343;SDS011;15597;50.914;6.638;2023-06-14T00:42:46;8.27;;;5.13;;
28343;SDS011;15597;50.914;6.638;2023-06-14T00:45:11;7.95;;;5.20;;
28343;SDS011;15597;50.914;6.638;2023-06-14T00:47:37;9.07;;;5.10;;
28343;SDS011;15597;50.914;6.638;2023-06-14T00:50:06;9.32;;;4.95;;
28343;SDS011;15597;50.914;6.638;2023-06-14T00:52:32;9.27;;;4.97;;
28343;SDS011;15597;50.914;6.638;2023-06-14T00:54:59;8.18;;;5.25;;
28343;SDS011;15597;50.914;6.638;2023-06-14T00:57:26;10.50;;;5.15;;
28343;SDS011;15597;50.914;6.638;2023-06-14T00:59:52;7.68;;;4.80;;
28343;SDS011;15597;50.914;6.638;2023-06-14T01:02:18;9.82;;;5.78;;
28343;SDS011;15597;50.914;6.638;2023-06-14T01:04:45;8.23;;;4.65;;
28343;SDS011;15597;50.914;6.638;2023-06-14T01:07:31;10.02;;;5.20;;
28343;SDS011;15597;50.914;6.638;2023-06-14T01:12:58;8.07;;;5.07;;
28343;SDS011;15597;50.914;6.638;2023-06-14T01:15:27;7.70;;;5.35;;
28343;SDS011;15597;50.914;6.638;2023-06-14T01:17:56;9.18;;;4.78;;
28343;SDS011;15597;50.914;6.638;2023-06-14T01:20:31;8.75;;;5.40;;
28343;SDS011;15597;50.914;6.638;2023-06-14T01:22:58;7.60;;;4.82;;
28343;SDS011;15597;50.914;6.638;2023-06-14T01:25:24;9.98;;;5.13;;
28343;SDS011;15597;50.914;6.638;2023-06-14T01:27:58;7.88;;;4.68;;
28343;SDS011;15597;50.914;6.638;2023-06-14T01:30:26;7.55;;;4.75;;
28343;SDS011;15597;50.914;6.638;2023-06-14T01:32:53;9.70;;;5.00;;
28343;SDS011;15597;50.914;6.638;2023-06-14T01:35:20;6.70;;;4.13;;
28343;SDS011;15597;50.914;6.638;2023-06-14T01:37:47;8.25;;;5.13;;
28343;SDS011;15597;50.914;6.638;2023-06-14T01:40:14;7.72;;;5.25;;
28343;SDS011;15597;50.914;6.638;2023-06-14T01:42:40;6.97;;;5.10;;
28343;SDS011;15597;50.914;6.638;2023-06-14T01:45:09;9.38;;;5.57;;
28343;SDS011;15597;50.914;6.638;2023-06-14T01:47:35;8.93;;;4.97;;
28343;SDS011;15597;50.914;6.638;2023-06-14T01:50:02;8.63;;;4.93;;
28343;SDS011;15597;50.914;6.638;2023-06-14T01:52:29;12.57;;;6.10;;
28343;SDS011;15597;50.914;6.638;2023-06-14T01:54:55;9.63;;;5.03;;
28343;SDS011;15597;50.914;6.638;2023-06-14T01:57:21;8.30;;;5.00;;
28343;SDS011;15597;50.914;6.638;2023-06-14T01:59:47;10.75;;;5.40;;
28343;SDS011;15597;50.914;6.638;2023-06-14T02:02:14;9.23;;;5.53;;
28343;SDS011;15597;50.914;6.638;2023-06-14T02:04:40;8.48;;;4.82;;
28343;SDS011;15597;50.914;6.638;2023-06-14T02:07:06;8.60;;;4.63;;
28343;SDS011;15597;50.914;6.638;2023-06-14T02:09:33;7.68;;;4.80;;
28343;SDS011;15597;50.914;6.638;2023-06-14T02:12:00;7.72;;;5.00;;
28343;SDS011;15597;50.914;6.638;2023-06-14T02:14:26;8.80;;;5.07;;
28343;SDS011;15597;50.914;6.638;2023-06-14T02:16:52;9.10;;;5.32;;
28343;SDS011;15597;50.914;6.638;2023-06-14T02:19:19;9.93;;;5.78;;
28343;SDS011;15597;50.914;6.638;2023-06-14T02:21:46;9.52;;;5.45;;
28343;SDS011;15597;50.914;6.638;2023-06-14T02:24:12;9.18;;;5.50;;
28343;SDS011;15597;50.914;6.638;2023-06-14T02:26:38;8.15;;;5.57;;
28343;SDS011;15597;50.914;6.638;2023-06-14T02:29:04;9.63;;;5.30;;
28343;SDS011;15597;50.914;6.638;2023-06-14T02:31:31;7.13;;;5.00;;
28343;SDS011;15597;50.914;6.638;2023-06-14T02:33:57;9.13;;;5.47;;
28343;SDS011;15597;50.914;6.638;2023-06-14T02:36:23;7.65;;;5.22;;
28343;SDS011;15597;50.914;6.638;2023-06-14T02:38:49;7.75;;;4.90;;
28343;SDS011;15597;50.914;6.638;2023-06-14T02:41:14;8.50;;;5.65;;
28343;SDS011;15597;50.914;6.638;2023-06-14T02:43:40;11.75;;;5.65;;
28343;SDS011;15597;50.914;6.638;2023-06-14T02:46:06;9.07;;;5.60;;
28343;SDS011;15597;50.914;6.638;2023-06-14T02:48:32;8.35;;;5.70;;
28343;SDS011;15597;50.914;6.638;2023-06-14T02:50:57;8.13;;;5.32;;
28343;SDS011;15597;50.914;6.638;2023-06-14T02:53:23;7.50;;;5.40;;
28343;SDS011;15597;50.914;6.638;2023-06-14T02:55:49;8.45;;;5.50;;
28343;SDS011;15597;50.914;6.638;2023-06-14T02:58:14;9.85;;;5.35;;
28343;SDS011;15597;50.914;6.638;2023-06-14T03:00:41;6.63;;;4.65;;
28343;SDS011;15597;50.914;6.638;2023-06-14T03:03:07;8.93;;;5.38;;
28343;SDS011;15597;50.914;6.638;2023-06-14T03:05:43;8.43;;;5.70;;
28343;SDS011;15597;50.914;6.638;2023-06-14T03:08:13;9.65;;;5.32;;
28343;SDS011;15597;50.914;6.638;2023-06-14T03:10:46;9.88;;;5.97;;
28343;SDS011;15597;50.914;6.638;2023-06-14T03:13:12;8.48;;;5.43;;
28343;SDS011;15597;50.914;6.638;2023-06-14T03:15:39;9.40;;;5.70;;
28343;SDS011;15597;50.914;6.638;2023-06-14T03:18:10;10.05;;;5.95;;
28343;SDS011;15597;50.914;6.638;2023-06-14T03:20:37;8.35;;;5.55;;
28343;SDS011;15597;50.914;6.638;2023-06-14T03:23:06;8.77;;;5.30;;
28343;SDS011;15597;50.914;6.638;2023-06-14T03:25:32;10.05;;;5.80;;
28343;SDS011;15597;50.914;6.638;2023-06-14T03:28:04;9.07;;;5.65;;
28343;SDS011;15597;50.914;6.638;2023-06-14T03:30:31;9.30;;;6.00;;
28343;SDS011;15597;50.914;6.638;2023-06-14T03:32:57;8.27;;;5.97;;
28343;SDS011;15597;50.914;6.638;2023-06-14T03:35:25;8.60;;;5.55;;
28343;SDS011;15597;50.914;6.638;2023-06-14T03:37:51;9.63;;;5.95;;
28343;SDS011;15597;50.914;6.638;2023-06-14T03:40:17;9.10;;;5.60;;
28343;SDS011;15597;50.914;6.638;2023-06-14T03:42:48;10.07;;;6.70;;
28343;SDS011;15597;50.914;6.638;2023-06-14T03:45:13;9.75;;;6.20;;
28343;SDS011;15597;50.914;6.638;2023-06-14T03:47:39;9.55;;;6.03;;
28343;SDS011;15597;50.914;6.638;2023-06-14T03:50:04;8.18;;;5.40;;
28343;SDS011;15597;50.914;6.638;2023-06-14T03:52:31;9.98;;;6.07;;
28343;SDS011;15597;50.914;6.638;2023-06-14T03:54:58;10.80;;;5.60;;
28343;SDS011;15597;50.914;6.638;2023-06-14T03:57:25;9.50;;;5.53;;
28343;SDS011;15597;50.914;6.638;2023-06-14T03:59:52;7.47;;;5.43;;
28343;SDS011;15597;50.914;6.638;2023-06-14T04:02:18;11.55;;;6.10;;
28343;SDS011;15597;50.914;6.638;2023-06-14T04:04:44;9.05;;;5.75;;
28343;SDS011;15597;50.914;6.638;2023-06-14T04:07:11;11.32;;;5.85;;
28343;SDS011;15597;50.914;6.638;2023-06-14T04:09:38;10.13;;;6.20;;
28343;SDS011;15597;50.914;6.638;2023-06-14T04:12:05;9.70;;;6.10;;
28343;SDS011;15597;50.914;6.638;2023-06-14T04:14:31;9.25;;;6.05;;
28343;SDS011;15597;50.914;6.638;2023-06-14T04:17:00;15.88;;;6.32;;
28343;SDS011;15597;50.914;6.638;2023-06-14T04:19:26;11.10;;;6.35;;
28343;SDS011;15597;50.914;6.638;2023-06-14T04:21:53;7.82;;;4.93;;
28343;SDS011;15597;50.914;6.638;2023-06-14T04:24:18;7.93;;;5.80;;
28343;SDS011;15597;50.914;6.638;2023-06-14T04:26:47;11.13;;;6.30;;
28343;SDS011;15597;50.914;6.638;2023-06-14T04:29:16;8.65;;;5.90;;
28343;SDS011;15597;50.914;6.638;2023-06-14T04:31:44;7.90;;;5.57;;
28343;SDS011;15597;50.914;6.638;2023-06-14T04:34:14;9.25;;;5.38;;
28343;SDS011;15597;50.914;6.638;2023-06-14T04:36:48;9.38;;;5.90;;
28343;SDS011;15597;50.914;6.638;2023-06-14T04:39:15;8.30;;;5.80;;
28343;SDS011;15597;50.914;6.638;2023-06-14T04:41:43;8.68;;;5.90;;
28343;SDS011;15597;50.914;6.638;2023-06-14T04:44:10;8.82;;;5.88;;
28343;SDS011;15597;50.914;6.638;2023-06-14T04:46:40;10.20;;;5.85;;
28343;SDS011;15597;50.914;6.638;2023-06-14T04:49:19;9.88;;;5.60;;
28343;SDS011;15597;50.914;6.638;2023-06-14T04:51:45;11.02;;;5.70;;
28343;SDS011;15597;50.914;6.638;2023-06-14T04:54:12;10.07;;;5.45;;
28343;SDS011;15597;50.914;6.638;2023-06-14T04:56:41;8.23;;;5.20;;
28343;SDS011;15597;50.914;6.638;2023-06-14T04:59:08;9.88;;;5.10;;
28343;SDS011;15597;50.914;6.638;2023-06-14T05:01:34;10.25;;;5.53;;
28343;SDS011;15597;50.914;6.638;2023-06-14T05:04:01;8.13;;;4.78;;
28343;SDS011;15597;50.914;6.638;2023-06-14T05:06:28;6.95;;;5.18;;
28343;SDS011;15597;50.914;6.638;2023-06-14T05:08:54;7.80;;;4.75;;
28343;SDS011;15597;50.914;6.638;2023-06-14T05:11:19;8.50;;;5.05;;
28343;SDS011;15597;50.914;6.638;2023-06-14T05:13:45;9.60;;;5.10;;
28343;SDS011;15597;50.914;6.638;2023-06-14T05:16:12;7.57;;;4.75;;
28343;SDS011;15597;50.914;6.638;2023-06-14T05:18:41;8.43;;;4.40;;
28343;SDS011;15597;50.914;6.638;2023-06-14T05:21:06;10.02;;;4.03;;
28343;SDS011;15597;50.914;6.638;2023-06-14T05:23:32;7.90;;;4.22;;
28343;SDS011;15597;50.914;6.638;2023-06-14T05:25:58;8.43;;;4.60;;
28343;SDS011;15597;50.914;6.638;2023-06-14T05:28:24;6.35;;;3.83;;
28343;SDS011;15597;50.914;6.638;2023-06-14T05:30:49;6.75;;;4.22;;
28343;SDS011;15597;50.914;6.638;2023-06-14T05:33:16;7.05;;;3.90;;
28343;SDS011;15597;50.914;6.638;2023-06-14T05:35:42;9.20;;;4.25;;
28343;SDS011;15597;50.914;6.638;2023-06-14T05:38:08;7.40;;;3.40;;
28343;SDS011;15597;50.914;6.638;2023-06-14T05:40:33;5.65;;;3.33;;
28343;SDS011;15597;50.914;6.638;2023-06-14T05:42:59;9.90;;;4.03;;
28343;SDS011;15597;50.914;6.638;2023-06-14T05:45:24;7.07;;;3.67;;
28343;SDS011;15597;50.914;6.638;2023-06-14T05:47:50;6.97;;;3.65;;
28343;SDS011;15597;50.914;6.638;2023-06-14T05:50:16;7.40;;;3.80;;
28343;SDS011;15597;50.914;6.638;2023-06-14T05:52:42;6.53;;;3.70;;
28343;SDS011;15597;50.914;6.638;2023-06-14T05:55:08;6.75;;;4.00;;
28343;SDS011;15597;50.914;6.638;2023-06-14T05:57:34;8.88;;;3.83;;
28343;SDS011;15597;50.914;6.638;2023-06-14T05:59:59;7.03;;;3.50;;
28343;SDS011;15597;50.914;6.638;2023-06-14T06:02:25;6.55;;;3.58;;
28343;SDS011;15597;50.914;6.638;2023-06-14T06:04:50;9.27;;;3.22;;
28343;SDS011;15597;50.914;6.638;2023-06-14T06:07:16;7.43;;;3.53;;
28343;SDS011;15597;50.914;6.638;2023-06-14T06:09:41;6.88;;;3.38;;
28343;SDS011;15597;50.914;6.638;2023-06-14T06:12:07;6.90;;;3.40;;
28343;SDS011;15597;50.914;6.638;2023-06-14T06:14:33;5.82;;;3.10;;
28343;SDS011;15597;50.914;6.638;2023-06-14T06:16:58;5.88;;;3.60;;
28343;SDS011;15597;50.914;6.638;2023-06-14T06:19:24;5.90;;;3.70;;
28343;SDS011;15597;50.914;6.638;2023-06-14T06:21:50;5.88;;;3.40;;
28343;SDS011;15597;50.914;6.638;2023-06-14T06:24:15;5.65;;;3.85;;
28343;SDS011;15597;50.914;6.638;2023-06-14T06:26:41;6.80;;;3.58;;
28343;SDS011;15597;50.914;6.638;2023-06-14T06:29:06;6.45;;;3.40;;
28343;SDS011;15597;50.914;6.638;2023-06-14T06:31:32;6.38;;;3.42;;
28343;SDS011;15597;50.914;6.638;2023-06-14T06:33:58;6.55;;;3.25;;
28343;SDS011;15597;50.914;6.638;2023-06-14T06:36:24;6.13;;;3.65;;
28343;SDS011;15597;50.914;6.638;2023-06-14T06:38:49;4.93;;;2.78;;
28343;SDS011;15597;50.914;6.638;2023-06-14T06:41:15;6.35;;;3.35;;
28343;SDS011;15597;50.914;6.638;2023-06-14T06:43:41;8.80;;;3.30;;
28343;SDS011;15597;50.914;6.638;2023-06-14T06:46:08;6.13;;;3.40;;
28343;SDS011;15597;50.914;6.638;2023-06-14T06:48:33;6.07;;;3.05;;
28343;SDS011;15597;50.914;6.638;2023-06-14T06:50:59;6.10;;;3.28;;
28343;SDS011;15597;50.914;6.638;2023-06-14T06:53:25;8.43;;;3.42;;
28343;SDS011;15597;50.914;6.638;2023-06-14T06:55:50;7.57;;;4.00;;
28343;SDS011;15597;50.914;6.638;2023-06-14T06:58:16;7.20;;;3.17;;
28343;SDS011;15597;50.914;6.638;2023-06-14T07:00:41;6.18;;;3.45;;
28343;SDS011;15597;50.914;6.638;2023-06-14T07:03:07;7.82;;;3.03;;
28343;SDS011;15597;50.914;6.638;2023-06-14T07:05:33;7.95;;;3.22;;
28343;SDS011;15597;50.914;6.638;2023-06-14T07:07:58;5.63;;;3.13;;
28343;SDS011;15597;50.914;6.638;2023-06-14T07:10:25;5.78;;;2.97;;
28343;SDS011;15597;50.914;6.638;2023-06-14T07:12:51;4.95;;;2.80;;
28343;SDS011;15597;50.914;6.638;2023-06-14T07:15:17;6.03;;;3.10;;
28343;SDS011;15597;50.914;6.638;2023-06-14T07:17:42;4.95;;;2.50;;
28343;SDS011;15597;50.914;6.638;2023-06-14T07:20:08;5.03;;;2.90;;
28343;SDS011;15597;50.914;6.638;2023-06-14T07:22:40;6.35;;;2.90;;
28343;SDS011;15597;50.914;6.638;2023-06-14T07:25:07;7.53;;;2.35;;
28343;SDS011;15597;50.914;6.638;2023-06-14T07:27:34;7.30;;;2.72;;
28343;SDS011;15597;50.914;6.638;2023-06-14T07:29:59;7.22;;;3.13;;
28343;SDS011;15597;50.914;6.638;2023-06-14T07:32:25;6.63;;;2.92;;
28343;SDS011;15597;50.914;6.638;2023-06-14T07:34:50;5.28;;;2.80;;
28343;SDS011;15597;50.914;6.638;2023-06-14T07:37:16;5.10;;;2.85;;
28343;SDS011;15597;50.914;6.638;2023-06-14T07:39:41;6.35;;;2.88;;
28343;SDS011;15597;50.914;6.638;2023-06-14T07:42:07;4.32;;;2.55;;
28343;SDS011;15597;50.914;6.638;2023-06-14T07:44:32;8.90;;;2.90;;
28343;SDS011;15597;50.914;6.638;2023-06-14T07:46:58;4.75;;;2.83;;
28343;SDS011;15597;50.914;6.638;2023-06-14T07:49:25;4.75;;;2.55;;
28343;SDS011;15597;50.914;6.638;2023-06-14T07:51:51;5.93;;;2.50;;
28343;SDS011;15597;50.914;6.638;2023-06-14T07:54:19;4.90;;;2.50;;
28343;SDS011;15597;50.914;6.638;2023-06-14T07:56:50;4.95;;;2.80;;
28343;SDS011;15597;50.914;6.638;2023-06-14T07:59:16;5.05;;;2.90;;
28343;SDS011;15597;50.914;6.638;2023-06-14T08:01:41;5.72;;;2.83;;
28343;SDS011;15597;50.914;6.638;2023-06-14T08:04:12;4.22;;;2.45;;
28343;SDS011;15597;50.914;6.638;2023-06-14T08:06:38;5.28;;;2.85;;
28343;SDS011;15597;50.914;6.638;2023-06-14T08:09:04;5.63;;;2.70;;
28343;SDS011;15597;50.914;6.638;2023-06-14T08:11:30;11.05;;;3.00;;
28343;SDS011;15597;50.914;6.638;2023-06-14T08:13:56;4.05;;;2.33;;
28343;SDS011;15597;50.914;6.638;2023-06-14T08:16:22;6.03;;;2.47;;
28343;SDS011;15597;50.914;6.638;2023-06-14T08:18:48;7.72;;;2.58;;
28343;SDS011;15597;50.914;6.638;2023-06-14T08:21:14;5.60;;;2.40;;
28343;SDS011;15597;50.914;6.638;2023-06-14T08:23:40;6.10;;;2.90;;
28343;SDS011;15597;50.914;6.638;2023-06-14T08:26:08;6.13;;;2.15;;
28343;SDS011;15597;50.914;6.638;2023-06-14T08:28:34;7.65;;;2.40;;
28343;SDS011;15597;50.914;6.638;2023-06-14T08:30:59;5.88;;;2.75;;
28343;SDS011;15597;50.914;6.638;2023-06-14T08:33:25;4.57;;;2.50;;
28343;SDS011;15597;50.914;6.638;2023-06-14T08:35:51;5.45;;;2.65;;
28343;SDS011;15597;50.914;6.638;2023-06-14T08:38:16;5.60;;;2.20;;
28343;SDS011;15597;50.914;6.638;2023-06-14T08:40:42;5.28;;;2.20;;
28343;SDS011;15597;50.914;6.638;2023-06-14T08:43:07;3.72;;;2.00;;
28343;SDS011;15597;50.914;6.638;2023-06-14T08:45:33;6.28;;;2.50;;
28343;SDS011;15597;50.914;6.638;2023-06-14T08:47:59;7.68;;;2.47;;
28343;SDS011;15597;50.914;6.638;2023-06-14T08:50:25;4.25;;;2.40;;
28343;SDS011;15597;50.914;6.638;2023-06-14T08:52:53;5.25;;;1.90;;
28343;SDS011;15597;50.914;6.638;2023-06-14T08:55:22;5.57;;;2.35;;
28343;SDS011;15597;50.914;6.638;2023-06-14T08:57:56;4.07;;;2.08;;
28343;SDS011;15597;50.914;6.638;2023-06-14T09:00:23;4.97;;;2.00;;
28343;SDS011;15597;50.914;6.638;2023-06-14T09:02:50;4.57;;;2.00;;
28343;SDS011;15597;50.914;6.638;2023-06-14T09:05:22;7.88;;;2.00;;
28343;SDS011;15597;50.914;6.638;2023-06-14T09:10:15;5.70;;;2.20;;
28343;SDS011;15597;50.914;6.638;2023-06-14T09:12:41;5.00;;;1.95;;
28343;SDS011;15597;50.914;6.638;2023-06-14T09:15:07;4.75;;;2.55;;
28343;SDS011;15597;50.914;6.638;2023-06-14T09:17:37;4.10;;;2.30;;
28343;SDS011;15597;50.914;6.638;2023-06-14T09:20:07;4.45;;;2.00;;
28343;SDS011;15597;50.914;6.638;2023-06-14T09:22:39;3.38;;;1.60;;
28343;SDS011;15597;50.914;6.638;2023-06-14T09:25:05;6.38;;;2.05;;
28343;SDS011;15597;50.914;6.638;2023-06-14T09:27:31;4.65;;;1.60;;
28343;SDS011;15597;50.914;6.638;2023-06-14T09:29:58;4.82;;;2.25;;
28343;SDS011;15597;50.914;6.638;2023-06-14T09:32:24;3.35;;;1.40;;
28343;SDS011;15597;50.914;6.638;2023-06-14T09:34:50;3.25;;;1.70;;
28343;SDS011;15597;50.914;6.638;2023-06-14T09:37:28;4.55;;;1.90;;
28343;SDS011;15597;50.914;6.638;2023-06-14T09:39:54;4.72;;;1.77;;
28343;SDS011;15597;50.914;6.638;2023-06-14T09:42:20;4.35;;;1.70;;
28343;SDS011;15597;50.914;6.638;2023-06-14T09:44:49;5.43;;;1.80;;
28343;SDS011;15597;50.914;6.638;2023-06-14T09:47:15;3.35;;;1.70;;
28343;SDS011;15597;50.914;6.638;2023-06-14T09:49:41;5.30;;;1.70;;
28343;SDS011;15597;50.914;6.638;2023-06-14T09:52:15;2.55;;;1.45;;
28343;SDS011;15597;50.914;6.638;2023-06-14T09:54:42;4.47;;;1.52;;
28343;SDS011;15597;50.914;6.638;2023-06-14T09:57:12;5.22;;;1.90;;
28343;SDS011;15597;50.914;6.638;2023-06-14T09:59:45;5.10;;;1.63;;
28343;SDS011;15597;50.914;6.638;2023-06-14T10:02:29;3.40;;;1.48;;
28343;SDS011;15597;50.914;6.638;2023-06-14T10:05:04;3.45;;;1.50;;
28343;SDS011;15597;50.914;6.638;2023-06-14T10:10:21;4.40;;;1.38;;
28343;SDS011;15597;50.914;6.638;2023-06-14T10:12:47;4.50;;;1.38;;
28343;SDS011;15597;50.914;6.638;2023-06-14T10:15:20;4.65;;;1.65;;
28343;SDS011;15597;50.914;6.638;2023-06-14T10:18:05;3.78;;;1.60;;
28343;SDS011;15597;50.914;6.638;2023-06-14T10:23:32;3.75;;;1.70;;
28343;SDS011;15597;50.914;6.638;2023-06-14T10:26:02;3.00;;;1.50;;
28343;SDS011;15597;50.914;6.638;2023-06-14T10:28:28;4.07;;;1.60;;
28343;SDS011;15597;50.914;6.638;2023-06-14T10:31:09;4.43;;;1.77;;
28343;SDS011;15597;50.914;6.638;2023-06-14T10:33:47;4.57;;;1.80;;
28343;SDS011;15597;50.914;6.638;2023-06-14T10:36:30;4.28;;;1.90;;
28343;SDS011;15597;50.914;6.638;2023-06-14T10:39:07;3.60;;;1.70;;
28343;SDS011;15597;50.914;6.638;2023-06-14T10:41:37;3.95;;;1.65;;
28343;SDS011;15597;50.914;6.638;2023-06-14T10:44:46;3.50;;;1.42;;
28343;SDS011;15597;50.914;6.638;2023-06-14T10:46:55;5.22;;;1.48;;
28343;SDS011;15597;50.914;6.638;2023-06-14T10:49:37;5.32;;;1.90;;
28343;SDS011;15597;50.914;6.638;2023-06-14T10:52:14;4.13;;;1.70;;
28343;SDS011;15597;50.914;6.638;2023-06-14T10:57:21;5.72;;;1.73;;
28343;SDS011;15597;50.914;6.638;2023-06-14T10:59:46;3.50;;;1.60;;
28343;SDS011;15597;50.914;6.638;2023-06-14T11:04:56;3.33;;;1.40;;
28343;SDS011;15597;50.914;6.638;2023-06-14T11:12:58;3.20;;;1.42;;
28343;SDS011;15597;50.914;6.638;2023-06-14T11:15:28;5.50;;;1.75;;
28343;SDS011;15597;50.914;6.638;2023-06-14T11:17:54;6.30;;;1.50;;
28343;SDS011;15597;50.914;6.638;2023-06-14T11:20:24;5.20;;;1.50;;
28343;SDS011;15597;50.914;6.638;2023-06-14T11:22:51;3.50;;;1.40;;
28343;SDS011;15597;50.914;6.638;2023-06-14T11:25:17;3.47;;;1.70;;
28343;SDS011;15597;50.914;6.638;2023-06-14T11:27:43;3.80;;;1.85;;
28343;SDS011;15597;50.914;6.638;2023-06-14T11:30:09;2.92;;;1.35;;
28343;SDS011;15597;50.914;6.638;2023-06-14T11:32:36;5.38;;;1.55;;
28343;SDS011;15597;50.914;6.638;2023-06-14T11:35:02;4.40;;;1.45;;
28343;SDS011;15597;50.914;6.638;2023-06-14T11:37:30;3.42;;;1.60;;
28343;SDS011;15597;50.914;6.638;2023-06-14T11:39:57;3.08;;;1.48;;
28343;SDS011;15597;50.914;6.638;2023-06-14T11:42:24;4.93;;;1.70;;
28343;SDS011;15597;50.914;6.638;2023-06-14T11:44:52;3.53;;;1.40;;
28343;SDS011;15597;50.914;6.638;2023-06-14T11:47:18;4.47;;;1.50;;
28343;SDS011;15597;50.914;6.638;2023-06-14T11:49:44;5.95;;;1.80;;
28343;SDS011;15597;50.914;6.638;2023-06-14T11:52:09;4.18;;;1.58;;
28343;SDS011;15597;50.914;6.638;2023-06-14T11:54:36;3.20;;;1.63;;
28343;SDS011;15597;50.914;6.638;2023-06-14T11:57:03;6.57;;;1.50;;
28343;SDS011;15597;50.914;6.638;2023-06-14T12:01:56;5.45;;;1.65;;
28343;SDS011;15597;50.914;6.638;2023-06-14T12:04:28;2.67;;;1.27;;
28343;SDS011;15597;50.914;6.638;2023-06-14T12:06:55;6.57;;;1.83;;
28343;SDS011;15597;50.914;6.638;2023-06-14T12:09:22;4.80;;;1.85;;
28343;SDS011;15597;50.914;6.638;2023-06-14T12:11:51;5.68;;;2.00;;
28343;SDS011;15597;50.914;6.638;2023-06-14T12:14:29;3.10;;;1.40;;
28343;SDS011;15597;50.914;6.638;2023-06-14T12:17:03;3.65;;;1.80;;
28343;SDS011;15597;50.914;6.638;2023-06-14T12:19:31;3.17;;;1.65;;
28343;SDS011;15597;50.914;6.638;2023-06-14T12:21:59;2.90;;;1.77;;
28343;SDS011;15597;50.914;6.638;2023-06-14T12:24:29;5.60;;;1.75;;
28343;SDS011;15597;50.914;6.638;2023-06-14T12:26:57;5.03;;;1.85;;
28343;SDS011;15597;50.914;6.638;2023-06-14T12:29:25;4.60;;;1.50;;
28343;SDS011;15597;50.914;6.638;2023-06-14T12:31:50;3.30;;;1.65;;
28343;SDS011;15597;50.914;6.638;2023-06-14T12:34:19;2.70;;;1.30;;
28343;SDS011;15597;50.914;6.638;2023-06-14T12:36:45;3.45;;;1.67;;
28343;SDS011;15597;50.914;6.638;2023-06-14T12:39:11;3.30;;;1.50;;
28343;SDS011;15597;50.914;6.638;2023-06-14T12:41:37;3.38;;;1.52;;
28343;SDS011;15597;50.914;6.638;2023-06-14T12:44:03;6.35;;;1.65;;
28343;SDS011;15597;50.914;6.638;2023-06-14T12:46:31;3.83;;;1.50;;
28343;SDS011;15597;50.914;6.638;2023-06-14T12:48:57;4.47;;;1.65;;
28343;SDS011;15597;50.914;6.638;2023-06-14T12:51:23;4.30;;;1.45;;
28343;SDS011;15597;50.914;6.638;2023-06-14T12:53:50;4.43;;;1.60;;
28343;SDS011;15597;50.914;6.638;2023-06-14T12:56:15;4.35;;;1.52;;
28343;SDS011;15597;50.914;6.638;2023-06-14T12:58:41;3.55;;;1.83;;
28343;SDS011;15597;50.914;6.638;2023-06-14T13:01:07;3.53;;;1.55;;
28343;SDS011;15597;50.914;6.638;2023-06-14T13:03:32;3.08;;;1.42;;
28343;SDS011;15597;50.914;6.638;2023-06-14T13:05:59;2.97;;;1.38;;
28343;SDS011;15597;50.914;6.638;2023-06-14T13:08:26;3.88;;;1.58;;
28343;SDS011;15597;50.914;6.638;2023-06-14T13:10:53;3.38;;;1.52;;
28343;SDS011;15597;50.914;6.638;2023-06-14T13:13:19;7.38;;;1.60;;
28343;SDS011;15597;50.914;6.638;2023-06-14T13:15:45;5.03;;;1.50;;
28343;SDS011;15597;50.914;6.638;2023-06-14T13:18:12;2.55;;;1.13;;
28343;SDS011;15597;50.914;6.638;2023-06-14T13:20:40;2.92;;;1.52;;
28343;SDS011;15597;50.914;6.638;2023-06-14T13:23:07;3.92;;;1.50;;
28343;SDS011;15597;50.914;6.638;2023-06-14T13:25:33;4.72;;;1.50;;
28343;SDS011;15597;50.914;6.638;2023-06-14T13:27:59;3.47;;;1.40;;
28343;SDS011;15597;50.914;6.638;2023-06-14T13:30:25;3.88;;;1.40;;
28343;SDS011;15597;50.914;6.638;2023-06-14T13:32:51;3.53;;;1.40;;
28343;SDS011;15597;50.914;6.638;2023-06-14T13:35:20;4.28;;;1.40;;
28343;SDS011;15597;50.914;6.638;2023-06-14T13:37:45;2.75;;;1.30;;
28343;SDS011;15597;50.914;6.638;2023-06-14T13:40:11;3.90;;;1.38;;
28343;SDS011;15597;50.914;6.638;2023-06-14T13:42:37;2.88;;;1.50;;
28343;SDS011;15597;50.914;6.638;2023-06-14T13:45:03;4.15;;;1.67;;
28343;SDS011;15597;50.914;6.638;2023-06-14T13:47:29;2.40;;;1.20;;
28343;SDS011;15597;50.914;6.638;2023-06-14T13:49:56;2.53;;;1.25;;
28343;SDS011;15597;50.914;6.638;2023-06-14T13:52:21;4.35;;;1.42;;
28343;SDS011;15597;50.914;6.638;2023-06-14T13:54:47;2.80;;;1.17;;
28343;SDS011;15597;50.914;6.638;2023-06-14T13:57:13;3.00;;;1.25;;
28343;SDS011;15597;50.914;6.638;2023-06-14T13:59:39;2.97;;;1.20;;
28343;SDS011;15597;50.914;6.638;2023-06-14T14:02:05;4.00;;;1.30;;
28343;SDS011;15597;50.914;6.638;2023-06-14T14:04:31;2.70;;;1.30;;
28343;SDS011;15597;50.914;6.638;2023-06-14T14:06:57;2.97;;;1.30;;
28343;SDS011;15597;50.914;6.638;2023-06-14T14:09:22;2.25;;;1.15;;
28343;SDS011;15597;50.914;6.638;2023-06-14T14:11:48;3.05;;;1.23;;
28343;SDS011;15597;50.914;6.638;2023-06-14T14:14:14;2.83;;;1.30;;
28343;SDS011;15597;50.914;6.638;2023-06-14T14:16:40;3.47;;;1.20;;
28343;SDS011;15597;50.914;6.638;2023-06-14T14:19:05;3.10;;;1.20;;
28343;SDS011;15597;50.914;6.638;2023-06-14T14:21:32;3.35;;;1.23;;
28343;SDS011;15597;50.914;6.638;2023-06-14T14:23:58;3.20;;;1.20;;
28343;SDS011;15597;50.914;6.638;2023-06-14T14:26:23;3.08;;;1.02;;
28343;SDS011;15597;50.914;6.638;2023-06-14T14:28:50;3.35;;;1.40;;
28343;SDS011;15597;50.914;6.638;2023-06-14T14:31:16;3.90;;;1.35;;
28343;SDS011;15597;50.914;6.638;2023-06-14T14:33:42;2.38;;;1.10;;
28343;SDS011;15597;50.914;6.638;2023-06-14T14:36:08;2.65;;;1.33;;
28343;SDS011;15597;50.914;6.638;2023-06-14T14:38:34;3.35;;;1.30;;
28343;SDS011;15597;50.914;6.638;2023-06-14T14:41:00;4.15;;;1.23;;
28343;SDS011;15597;50.914;6.638;2023-06-14T14:43:25;3.65;;;1.10;;
28343;SDS011;15597;50.914;6.638;2023-06-14T14:45:52;4.78;;;1.23;;
28343;SDS011;15597;50.914;6.638;2023-06-14T14:48:17;2.22;;;1.10;;
28343;SDS011;15597;50.914;6.638;2023-06-14T14:50:43;3.55;;;1.30;;
28343;SDS011;15597;50.914;6.638;2023-06-14T14:53:09;2.67;;;1.30;;
28343;SDS011;15597;50.914;6.638;2023-06-14T14:55:34;2.70;;;1.25;;
28343;SDS011;15597;50.914;6.638;2023-06-14T14:58:02;3.42;;;1.50;;
28343;SDS011;15597;50.914;6.638;2023-06-14T15:00:28;5.20;;;1.38;;
28343;SDS011;15597;50.914;6.638;2023-06-14T15:02:54;3.38;;;1.60;;
28343;SDS011;15597;50.914;6.638;2023-06-14T15:05:20;5.85;;;1.50;;
28343;SDS011;15597;50.914;6.638;2023-06-14T15:07:45;4.65;;;1.50;;
28343;SDS011;15597;50.914;6.638;2023-06-14T15:10:11;4.00;;;1.65;;
28343;SDS011;15597;50.914;6.638;2023-06-14T15:12:37;2.58;;;1.20;;